<?xml version="1.0" encoding="UTF-8" standalone="no" ?>
<gpx xmlns="http://www.topografix.com/GPX/1/1" xmlns:xsi="http://www.w3.org/2001/XMLSchema-instance" xsi:schemaLocation="http://www.topografix.com/GPX/1/1 http://www.topografix.com/GPX/1/1/gpx.xsd" version="1.1" creator="VisuGPX - https://www.visugpx.com">
  <metadata>
    <name>Argentina</name>
    <desc><![CDATA[Downloaded from eMap Software Version 2.75]]></desc>
  </metadata>
  <trk>
    <name><![CDATA[Argentina_96]]></name>
    <extensions>
      <line xmlns="http://www.topografix.com/GPX/gpx_style/0/2">
        <color>ff0000</color>
        <opacity>0.78</opacity>
        <width>0.6000</width>
      </line>
    </extensions>
    <trkseg>
      <trkpt lat="44.15435" lon="6.97175">
        <ele>2830.739258</ele>
        <time>2009-06-14T10:11:06Z</time>
      </trkpt>
      <trkpt lat="44.15433" lon="6.97177">
        <ele>2820.645508</ele>
        <time>2009-06-14T10:11:52Z</time>
      </trkpt>
      <trkpt lat="44.15435" lon="6.97175">
        <ele>2823.048828</ele>
        <time>2009-06-14T10:13:50Z</time>
      </trkpt>
      <trkpt lat="44.15438" lon="6.97175">
        <ele>2822.567871</ele>
        <time>2009-06-14T10:15:55Z</time>
      </trkpt>
      <trkpt lat="44.15435" lon="6.97175">
        <ele>2822.567871</ele>
        <time>2009-06-14T10:18:38Z</time>
      </trkpt>
      <trkpt lat="44.15435" lon="6.97179">
        <ele>2823.529297</ele>
        <time>2009-06-14T10:19:24Z</time>
      </trkpt>
      <trkpt lat="44.15429" lon="6.97181">
        <ele>2822.567871</ele>
        <time>2009-06-14T10:19:56Z</time>
      </trkpt>
      <trkpt lat="44.15425" lon="6.97166">
        <ele>2820.164551</ele>
        <time>2009-06-14T10:20:22Z</time>
      </trkpt>
      <trkpt lat="44.15414" lon="6.97136">
        <ele>2822.567871</ele>
        <time>2009-06-14T10:20:57Z</time>
      </trkpt>
      <trkpt lat="44.15403" lon="6.97108">
        <ele>2814.877441</ele>
        <time>2009-06-14T10:21:31Z</time>
      </trkpt>
      <trkpt lat="44.15392" lon="6.9707">
        <ele>2810.551758</ele>
        <time>2009-06-14T10:22:07Z</time>
      </trkpt>
      <trkpt lat="44.1538" lon="6.9704">
        <ele>2805.745117</ele>
        <time>2009-06-14T10:22:40Z</time>
      </trkpt>
      <trkpt lat="44.15371" lon="6.97027">
        <ele>2799.496094</ele>
        <time>2009-06-14T10:23:04Z</time>
      </trkpt>
      <trkpt lat="44.1536" lon="6.96999">
        <ele>2794.208984</ele>
        <time>2009-06-14T10:23:47Z</time>
      </trkpt>
      <trkpt lat="44.15354" lon="6.96954">
        <ele>2790.36377</ele>
        <time>2009-06-14T10:24:34Z</time>
      </trkpt>
      <trkpt lat="44.15347" lon="6.9693">
        <ele>2781.711914</ele>
        <time>2009-06-14T10:24:56Z</time>
      </trkpt>
      <trkpt lat="44.15345" lon="6.96915">
        <ele>2781.231445</ele>
        <time>2009-06-14T10:25:09Z</time>
      </trkpt>
      <trkpt lat="44.15324" lon="6.96883">
        <ele>2772.099121</ele>
        <time>2009-06-14T10:25:42Z</time>
      </trkpt>
      <trkpt lat="44.15309" lon="6.96827">
        <ele>2768.253418</ele>
        <time>2009-06-14T10:26:28Z</time>
      </trkpt>
      <trkpt lat="44.15296" lon="6.96791">
        <ele>2760.562988</ele>
        <time>2009-06-14T10:27:05Z</time>
      </trkpt>
      <trkpt lat="44.15294" lon="6.96771">
        <ele>2754.314453</ele>
        <time>2009-06-14T10:27:33Z</time>
      </trkpt>
      <trkpt lat="44.15296" lon="6.96752">
        <ele>2750.469238</ele>
        <time>2009-06-14T10:27:58Z</time>
      </trkpt>
      <trkpt lat="44.15289" lon="6.96722">
        <ele>2749.027344</ele>
        <time>2009-06-14T10:28:40Z</time>
      </trkpt>
      <trkpt lat="44.15281" lon="6.96675">
        <ele>2746.143555</ele>
        <time>2009-06-14T10:29:32Z</time>
      </trkpt>
      <trkpt lat="44.15262" lon="6.96636">
        <ele>2738.452637</ele>
        <time>2009-06-14T10:30:08Z</time>
      </trkpt>
      <trkpt lat="44.15234" lon="6.96598">
        <ele>2728.839355</ele>
        <time>2009-06-14T10:30:45Z</time>
      </trkpt>
      <trkpt lat="44.15223" lon="6.96568">
        <ele>2727.87793</ele>
        <time>2009-06-14T10:31:25Z</time>
      </trkpt>
      <trkpt lat="44.15206" lon="6.96544">
        <ele>2726.916992</ele>
        <time>2009-06-14T10:32:22Z</time>
      </trkpt>
      <trkpt lat="44.15197" lon="6.96531">
        <ele>2723.552246</ele>
        <time>2009-06-14T10:33:04Z</time>
      </trkpt>
      <trkpt lat="44.15191" lon="6.96497">
        <ele>2721.148926</ele>
        <time>2009-06-14T10:33:40Z</time>
      </trkpt>
      <trkpt lat="44.15182" lon="6.96465">
        <ele>2720.668457</ele>
        <time>2009-06-14T10:34:05Z</time>
      </trkpt>
      <trkpt lat="44.15154" lon="6.96422">
        <ele>2715.861816</ele>
        <time>2009-06-14T10:34:49Z</time>
      </trkpt>
      <trkpt lat="44.15146" lon="6.96413">
        <ele>2713.939453</ele>
        <time>2009-06-14T10:35:16Z</time>
      </trkpt>
      <trkpt lat="44.15133" lon="6.96396">
        <ele>2709.132813</ele>
        <time>2009-06-14T10:37:07Z</time>
      </trkpt>
      <trkpt lat="44.15126" lon="6.96374">
        <ele>2709.613281</ele>
        <time>2009-06-14T10:37:30Z</time>
      </trkpt>
      <trkpt lat="44.15116" lon="6.96355">
        <ele>2709.132813</ele>
        <time>2009-06-14T10:37:59Z</time>
      </trkpt>
      <trkpt lat="44.15105" lon="6.96327">
        <ele>2709.613281</ele>
        <time>2009-06-14T10:38:45Z</time>
      </trkpt>
      <trkpt lat="44.1509" lon="6.96302">
        <ele>2713.458496</ele>
        <time>2009-06-14T10:39:25Z</time>
      </trkpt>
      <trkpt lat="44.15077" lon="6.96284">
        <ele>2718.265137</ele>
        <time>2009-06-14T10:39:55Z</time>
      </trkpt>
      <trkpt lat="44.15071" lon="6.96269">
        <ele>2722.110352</ele>
        <time>2009-06-14T10:40:18Z</time>
      </trkpt>
      <trkpt lat="44.1506" lon="6.96246">
        <ele>2726.436035</ele>
        <time>2009-06-14T10:40:55Z</time>
      </trkpt>
      <trkpt lat="44.15045" lon="6.96235">
        <ele>2727.397461</ele>
        <time>2009-06-14T10:41:17Z</time>
      </trkpt>
      <trkpt lat="44.15023" lon="6.96203">
        <ele>2729.320313</ele>
        <time>2009-06-14T10:41:58Z</time>
      </trkpt>
      <trkpt lat="44.15017" lon="6.96192">
        <ele>2729.800781</ele>
        <time>2009-06-14T10:42:10Z</time>
      </trkpt>
      <trkpt lat="44.15" lon="6.96179">
        <ele>2729.320313</ele>
        <time>2009-06-14T10:42:37Z</time>
      </trkpt>
      <trkpt lat="44.14983" lon="6.96164">
        <ele>2730.762207</ele>
        <time>2009-06-14T10:43:10Z</time>
      </trkpt>
      <trkpt lat="44.14968" lon="6.96141">
        <ele>2731.242676</ele>
        <time>2009-06-14T10:43:40Z</time>
      </trkpt>
      <trkpt lat="44.14965" lon="6.96136">
        <ele>2731.242676</ele>
        <time>2009-06-14T10:43:46Z</time>
      </trkpt>
      <trkpt lat="44.14968" lon="6.96128">
        <ele>2731.242676</ele>
        <time>2009-06-14T10:43:52Z</time>
      </trkpt>
      <trkpt lat="44.14987" lon="6.96072">
        <ele>2730.28125</ele>
        <time>2009-06-14T10:44:31Z</time>
      </trkpt>
      <trkpt lat="44.14991" lon="6.96057">
        <ele>2731.242676</ele>
        <time>2009-06-14T10:44:40Z</time>
      </trkpt>
      <trkpt lat="44.14987" lon="6.96042">
        <ele>2729.800781</ele>
        <time>2009-06-14T10:45:06Z</time>
      </trkpt>
      <trkpt lat="44.14976" lon="6.95997">
        <ele>2728.358887</ele>
        <time>2009-06-14T10:45:40Z</time>
      </trkpt>
      <trkpt lat="44.1497" lon="6.95939">
        <ele>2729.320313</ele>
        <time>2009-06-14T10:46:13Z</time>
      </trkpt>
      <trkpt lat="44.14955" lon="6.95905">
        <ele>2726.916992</ele>
        <time>2009-06-14T10:46:43Z</time>
      </trkpt>
      <trkpt lat="44.14938" lon="6.9589">
        <ele>2722.59082</ele>
        <time>2009-06-14T10:47:05Z</time>
      </trkpt>
      <trkpt lat="44.14927" lon="6.95879">
        <ele>2715.381348</ele>
        <time>2009-06-14T10:47:35Z</time>
      </trkpt>
      <trkpt lat="44.14914" lon="6.95859">
        <ele>2712.978027</ele>
        <time>2009-06-14T10:48:03Z</time>
      </trkpt>
      <trkpt lat="44.1489" lon="6.95838">
        <ele>2708.652344</ele>
        <time>2009-06-14T10:48:45Z</time>
      </trkpt>
      <trkpt lat="44.14892" lon="6.95823">
        <ele>2704.806152</ele>
        <time>2009-06-14T10:49:10Z</time>
      </trkpt>
      <trkpt lat="44.1491" lon="6.95819">
        <ele>2701.441895</ele>
        <time>2009-06-14T10:49:34Z</time>
      </trkpt>
      <trkpt lat="44.14927" lon="6.95817">
        <ele>2697.115723</ele>
        <time>2009-06-14T10:49:45Z</time>
      </trkpt>
      <trkpt lat="44.14931" lon="6.95817">
        <ele>2695.673828</ele>
        <time>2009-06-14T10:49:49Z</time>
      </trkpt>
      <trkpt lat="44.14959" lon="6.95808">
        <ele>2689.90625</ele>
        <time>2009-06-14T10:50:14Z</time>
      </trkpt>
      <trkpt lat="44.14959" lon="6.95806">
        <ele>2689.425293</ele>
        <time>2009-06-14T10:50:15Z</time>
      </trkpt>
      <trkpt lat="44.1492" lon="6.95756">
        <ele>2684.619141</ele>
        <time>2009-06-14T10:51:00Z</time>
      </trkpt>
    </trkseg>
  </trk>
</gpx>